Latest Weather Observations for Archerfield

IDQ60901

Issued at 7:21 am EST Friday 28 August 2015 (issued every 10 minutes, with the page automatically refreshed every 10 minutes)

About weather observations | Map of Brisbane area stations | Latest observations for Brisbane area | Other Formats
Station Details ID: 040211 Name: ARCHERFIELD AIRPORT Lat: -27.57 Lon: 153.01 Height: 12.5 m
Data from the previous 72 hours. | See also: Recent months at Archerfield
Date/Time
EST
Tmp

°C
App
Tmp
°C
Dew
Point
°C
Rel
Hum
%
Delta-T

°C
Wind Press
QNH
hPa
Press
MSL
hPa
Rain
since
9 am
mm
Dir
 
Spd
km/h
Gust
km/h
Spd
kts
Gust
kts
28/07:00am 15.1 13.9 14.0 93 0.6 WSW 13 19 7 10 1021.8 1021.8 4.6
28/06:30am 15.0 13.8 14.0 94 0.6 SW 13 19 7 10 1021.2 1021.2 4.6
28/06:00am 15.1 13.9 14.1 94 0.6 WSW 13 17 7 9 1021.0 1021.0 4.6
28/05:30am 15.1 13.6 14.1 94 0.6 WSW 15 20 8 11 1020.7 1020.7 4.6
28/05:00am 15.0 14.3 14.2 95 0.5 SW 11 15 6 8 1020.4 1020.4 4.6
28/04:30am 14.2 13.3 13.6 96 0.3 SSW 11 13 6 7 1020.4 1020.4 4.4
28/04:00am 14.4 14.4 13.6 95 0.4 S 6 7 3 4 1020.0 1020.0 4.0
28/03:52am 14.4 14.4 13.6 95 0.4 S 6 7 3 4 1020.1 1020.1 4.0
28/03:30am 14.2 14.9 13.4 95 0.4 SSW 2 7 1 4 1020.2 1020.2 4.0
28/03:05am 14.0 15.0 13.2 95 0.4 CALM 0 0 0 0 1020.3 1020.3 3.8
28/03:00am 14.0 14.6 13.2 95 0.4 SSE 2 9 1 5 1020.5 1020.5 3.8
28/02:30am 14.0 13.7 13.2 95 0.4 SSE 7 9 4 5 1020.2 1020.2 3.2
28/02:00am 14.0 13.3 13.1 94 0.5 SSW 9 13 5 7 1020.5 1020.5 3.0
28/01:30am 14.2 13.8 13.1 93 0.6 S 7 9 4 5 1021.0 1021.0 2.8
28/01:00am 14.1 13.6 12.8 92 0.7 SSE 7 9 4 5 1020.9 1020.9 2.6
28/12:30am 14.3 14.5 12.9 91 0.8 SSE 4 7 2 4 1021.2 1021.2 2.6
28/12:00am 14.1 15.0 12.8 92 0.7 CALM 0 0 0 0 1021.6 1021.6 2.2
 
Date/Time
EST
Tmp

°C
App
Tmp
°C
Dew
Point
°C
Rel
Hum
%
Delta-T

°C
Wind Press
QNH
hPa
Press
MSL
hPa
Rain
since
9 am
mm
Dir
 
Spd
km/h
Gust
km/h
Spd
kts
Gust
kts
27/11:30pm 14.0 14.8 12.7 92 0.7 CALM 0 0 0 0 1021.2 1021.2 2.2
27/11:00pm 14.0 13.8 12.9 93 0.6 SSW 6 9 3 5 1021.4 1021.4 2.2
27/10:30pm 14.0 13.3 13.1 94 0.5 SSW 9 13 5 7 1021.4 1021.4 2.2
27/10:00pm 14.0 12.8 12.9 93 0.6 SSW 11 13 6 7 1021.6 1021.6 2.2
27/09:30pm 14.3 13.5 13.0 92 0.7 S 9 13 5 7 1021.4 1021.4 2.2
27/09:00pm 14.2 14.0 13.1 93 0.6 SE 6 7 3 4 1021.5 1021.5 2.2
27/08:30pm 14.2 14.1 13.2 94 0.6 SW 6 9 3 5 1021.5 1021.5 2.2
27/08:00pm 14.1 14.3 13.0 93 0.6 SSE 4 6 2 3 1021.1 1021.1 2.2
27/07:30pm 14.2 14.0 13.1 93 0.6 S 6 7 3 4 1020.8 1020.8 2.2
27/07:00pm 14.2 14.0 12.9 92 0.7 SE 6 7 3 4 1020.5 1020.5 2.2
27/06:30pm 14.4 13.7 13.1 92 0.7 SSW 9 11 5 6 1020.6 1020.6 2.2
27/06:00pm 14.3 15.2 13.0 92 0.7 CALM 0 2 0 1 1020.6 1020.6 2.2
27/05:30pm 14.3 14.0 13.2 93 0.6 S 7 11 4 6 1020.3 1020.3 2.2
27/05:00pm 14.2 14.0 12.9 92 0.7 SSE 6 9 3 5 1020.1 1020.1 2.2
27/04:30pm 14.2 13.1 13.1 93 0.6 SSE 11 15 6 8 1019.8 1019.8 2.2
27/04:00pm 14.7 14.0 13.1 90 0.9 S 9 11 5 6 1020.2 1020.2 1.8
27/03:30pm 14.8 14.5 12.8 88 1.1 SSW 6 9 3 5 1020.3 1020.3 1.8
27/03:00pm 14.9 12.9 12.6 86 1.3 WSW 15 19 8 10 1020.3 1020.3 1.0
27/02:30pm 15.4 12.7 11.8 79 1.9 WSW 17 22 9 12 1020.1 1020.1 0.8
27/02:00pm 19.4 16.2 10.1 55 5.0 WSW 17 26 9 14 1020.0 1020.0 0.0
27/01:30pm 22.0 19.5 6.7 37 7.8 WSW 9 11 5 6 1019.3 1019.3 0.0
27/01:00pm 22.7 19.6 5.6 33 8.6 SW 11 17 6 9 1019.2 1019.2 0.0
27/12:30pm 22.4 18.8 6.6 36 8.1 WSW 15 20 8 11 1019.8 1019.8 0.0
27/12:00pm 22.0 19.4 7.8 40 7.4 WSW 11 17 6 9 1020.3 1020.3 0.0
27/11:30am 20.8 18.2 7.8 43 6.7 WSW 11 15 6 8 1020.4 1020.4 0.0
27/11:00am 20.6 17.6 7.6 43 6.7 WSW 13 17 7 9 1020.9 1020.9 0.0
27/10:30am 20.6 17.6 7.9 44 6.6 WSW 13 17 7 9 1020.9 1020.9 0.0
27/10:00am 20.1 16.5 6.8 42 6.7 WSW 15 24 8 13 1021.3 1021.3 0.0
27/09:30am 19.4 16.2 6.8 44 6.3 WSW 13 17 7 9 1021.8 1021.8 0.0
27/09:00am 18.7 15.7 7.5 48 5.7 SW 13 17 7 9 1021.8 1021.8 0.0
27/08:30am 18.3 16.6 8.3 52 5.1 SSW 7 9 4 5 1021.8 1021.8 0.0
27/08:00am 18.0 16.2 8.0 52 5.1 SSW 7 11 4 6 1021.6 1021.6 0.0
27/07:30am 17.6 15.6 8.5 55 4.7 SSW 9 11 5 6 1021.3 1021.3 0.0
27/07:00am 16.8 14.8 8.8 59 4.1 S 9 11 5 6 1021.0 1021.0 0.0
27/06:30am 16.0 13.9 8.2 60 3.9 S 9 11 5 6 1020.8 1020.8 0.0
27/06:00am 15.9 15.5 8.2 60 3.9 CALM 0 6 0 3 1020.6 1020.6 0.0
27/05:30am 16.2 14.1 8.4 60 4.0 SSW 9 9 5 5 1020.3 1020.3 0.0
27/05:00am 16.7 14.9 7.9 56 4.4 SSW 7 9 4 5 1019.8 1019.8 0.0
27/04:30am 17.2 15.4 7.8 54 4.8 S 7 9 4 5 1019.9 1019.9 0.0
27/04:00am 16.6 15.0 8.1 57 4.3 SW 6 9 3 5 1020.0 1020.0 0.0
27/03:30am 17.0 16.5 7.9 55 4.6 CALM 0 6 0 3 1020.0 1020.0 0.0
27/03:00am 16.9 14.8 8.3 57 4.4 W 9 15 5 8 1019.8 1019.8 0.0
27/02:30am 16.5 14.9 8.7 60 4.0 WSW 7 9 4 5 1019.9 1019.9 0.0
27/02:00am 16.7 14.8 9.1 61 3.9 SW 9 13 5 7 1019.9 1019.9 0.0
27/01:30am 16.3 14.8 10.4 68 3.1 WSW 9 11 5 6 1020.2 1020.2 0.0
27/01:00am 15.3 15.3 9.9 70 2.8 CALM 0 6 0 3 1020.4 1020.4 0.0
27/12:30am 16.0 16.5 11.6 75 2.4 CALM 0 0 0 0 1020.3 1020.3 0.0
27/12:00am 16.0 15.1 11.4 74 2.5 WSW 7 9 4 5 1020.5 1020.5 0.0
 
Date/Time
EST
Tmp

°C
App
Tmp
°C
Dew
Point
°C
Rel
Hum
%
Delta-T

°C
Wind Press
QNH
hPa
Press
MSL
hPa
Rain
since
9 am
mm
Dir
 
Spd
km/h
Gust
km/h
Spd
kts
Gust
kts
26/11:30pm 16.9 17.4 11.6 71 2.9 CALM 0 0 0 0 1021.0 1021.0 0.0
26/11:00pm 17.4 16.3 12.1 71 2.9 SW 9 11 5 6 1021.0 1021.0 0.0
26/10:30pm 18.2 18.1 12.0 67 3.4 NNE 4 7 2 4 1020.8 1020.8 0.0
26/10:00pm 19.0 19.1 14.5 75 2.6 E 7 11 4 6 1020.7 1020.7 0.0
26/09:30pm 17.8 18.4 15.4 86 1.4 NW 6 7 3 4 1020.8 1020.8 0.0
26/09:00pm 17.6 17.8 14.1 80 2.0 NW 6 9 3 5 1020.7 1020.7 0.0
26/08:30pm 18.7 19.3 15.4 81 1.9 NNW 6 11 3 6 1020.6 1020.6 0.0
26/08:00pm 19.4 20.9 15.7 79 2.2 N 2 6 1 3 1020.3 1020.3 0.0
26/07:30pm 19.5 20.4 15.2 76 2.5 NNE 4 7 2 4 1020.0 1020.0 0.0
26/07:00pm 19.2 18.2 14.7 75 2.6 N 13 17 7 9 1019.5 1019.5 0.0
26/06:30pm 19.7 18.6 14.3 71 3.1 NNE 13 17 7 9 1019.2 1019.2 0.0
26/06:00pm 20.4 18.9 14.3 68 3.5 NNE 15 19 8 10 1018.9 1018.9 0.0
26/05:30pm 21.7 19.5 14.4 63 4.3 NNE 19 24 10 13 1018.3 1018.3 0.0
26/05:00pm 24.1 21.9 13.3 51 6.3 NNE 17 24 9 13 1017.6 1017.6 0.0
26/04:30pm 27.3 25.5 10.9 36 9.3 WNW 11 15 6 8 1017.3 1017.3 0.0
26/04:00pm 27.4 24.3 10.2 34 9.6 WNW 17 24 9 13 1017.2 1017.2 0.0
26/03:30pm 27.6 24.4 9.9 33 9.9 WNW 17 24 9 13 1016.9 1016.9 0.0
26/03:00pm 28.1 25.1 10.8 34 9.8 WNW 17 22 9 12 1017.1 1017.1 0.0
26/02:30pm 27.5 24.3 9.8 33 9.9 W 17 22 9 12 1017.3 1017.3 0.0
26/02:00pm 27.5 23.9 9.8 33 9.8 NW 19 30 10 16 1017.7 1017.7 0.0
26/01:30pm 27.2 24.2 9.1 32 9.9 W 15 24 8 13 1017.9 1017.9 0.0
26/01:00pm 26.8 22.7 8.7 32 9.8 W 20 30 11 16 1018.3 1018.3 0.0
26/12:30pm 26.1 22.6 8.6 33 9.5 NW 17 28 9 15 1019.0 1019.0 0.0
26/12:00pm 25.8 22.1 7.9 32 9.5 W 17 24 9 13 1019.6 1019.6 0.0
26/11:30am 24.8 21.1 6.5 31 9.5 WNW 15 20 8 11 1020.1 1020.1 0.0
26/11:00am 24.0 21.5 8.4 37 8.3 NNW 11 19 6 10 1020.7 1020.7 0.0
26/10:30am 22.0 20.0 8.5 42 7.1 W 9 15 5 8 1021.1 1021.1 0.0
26/10:00am 21.6 18.8 8.5 43 6.9 WNW 13 17 7 9 1021.4 1021.4 0.0
26/09:30am 21.0 17.5 8.6 45 6.5 W 17 24 9 13 1021.4 1021.4 0.0
26/09:00am 20.8 16.7 8.8 46 6.3 W 20 24 11 13 1021.1 1021.1 0.2
26/08:30am 20.3 15.5 8.9 48 6.0 W 24 30 13 16 1021.4 1021.4 0.2
26/08:00am 19.6 14.1 9.2 51 5.5 W 28 32 15 17 1021.2 1021.2 0.2
26/07:30am 18.6 13.3 9.9 57 4.6 W 28 35 15 19 1020.8 1020.8 0.2
26/07:00am 17.5 14.2 10.9 65 3.5 WSW 19 22 10 12 1020.6 1020.6 0.2
26/06:30am 16.3 13.9 11.5 73 2.6 W 15 19 8 10 1020.3 1020.3 0.2
26/06:00am 16.1 14.3 12.1 77 2.2 WSW 13 17 7 9 1020.0 1020.0 0.2
26/05:30am 15.9 14.5 12.1 78 2.1 WSW 11 15 6 8 1019.6 1019.6 0.2
26/05:00am 16.7 16.2 12.5 76 2.3 WSW 7 9 4 5 1019.1 1019.1 0.2
26/04:30am 16.8 15.1 12.5 76 2.4 WSW 13 17 7 9 1018.8 1018.8 0.2
26/04:00am 17.0 15.0 12.7 76 2.4 WSW 15 20 8 11 1018.4 1018.4 0.2
26/03:30am 17.8 14.6 13.1 74 2.6 W 22 32 12 17 1018.4 1018.4 0.2
26/03:00am 18.1 15.8 14.0 77 2.3 W 19 24 10 13 1018.4 1018.4 0.2
26/02:30am 18.5 16.8 14.6 78 2.3 W 17 22 9 12 1018.4 1018.4 0.2
26/02:00am 17.9 16.8 15.3 85 1.5 WSW 15 19 8 10 1018.7 1018.7 0.2
26/01:30am 18.2 17.5 15.5 84 1.6 W 13 19 7 10 1018.6 1018.6 0.2
26/01:00am 18.3 18.0 15.4 83 1.7 W 11 13 6 7 1018.9 1018.9 0.2
26/12:30am 18.4 19.5 15.5 83 1.7 NW 4 11 2 6 1018.9 1018.9 0.2
26/12:00am 19.1 20.0 16.1 83 1.8 NNW 6 7 3 4 1018.9 1018.9 0.2
 
Date/Time
EST
Tmp

°C
App
Tmp
°C
Dew
Point
°C
Rel
Hum
%
Delta-T

°C
Wind Press
QNH
hPa
Press
MSL
hPa
Rain
since
9 am
mm
Dir
 
Spd
km/h
Gust
km/h
Spd
kts
Gust
kts
25/11:30pm 18.8 18.9 15.5 81 1.9 N 9 15 5 8 1018.9 1018.9 0.2
25/11:00pm 18.1 19.8 16.1 88 1.2 NE 2 6 1 3 1018.8 1018.8 0.2
25/10:30pm 18.2 19.4 16.0 87 1.3 ESE 4 9 2 5 1018.5 1018.5 0.2
25/10:00pm 19.0 21.4 17.1 89 1.1 CALM 0 0 0 0 1018.4 1018.4 0.2
25/09:30pm 19.1 21.0 16.7 86 1.4 NW 2 7 1 4 1018.5 1018.5 0.2
25/09:00pm 18.7 19.3 15.8 83 1.7 NNE 7 9 4 5 1018.6 1018.6 0.2
25/08:30pm 20.2 22.8 17.4 84 1.7 CALM 0 0 0 0 1018.5 1018.5 0.2
25/08:00pm 20.6 22.9 16.8 79 2.3 CALM 0 0 0 0 1018.3 1018.3 0.2
25/07:30pm 20.9 23.4 17.3 80 2.2 CALM 0 0 0 0 1018.0 1018.0 0.2
25/07:00pm 20.3 20.7 16.3 78 2.4 ENE 9 13 5 7 1017.6 1017.6 0.2
25/06:30pm 22.1 23.5 16.4 70 3.5 ENE 4 7 2 4 1017.3 1017.3 0.2
25/06:00pm 23.3 23.2 16.1 64 4.4 W 11 17 6 9 1016.8 1016.8 0.2
25/05:30pm 24.7 24.3 16.2 59 5.2 WSW 13 19 7 10 1016.5 1016.5 0.2
25/05:00pm 25.5 25.2 16.4 57 5.6 WSW 13 17 7 9 1016.2 1016.2 0.2
25/04:30pm 26.7 26.8 16.6 54 6.3 WSW 11 15 6 8 1016.2 1016.2 0.2
25/04:00pm 26.2 25.4 16.2 54 6.1 WSW 15 20 8 11 1016.0 1016.0 0.2
25/03:30pm 27.0 25.8 16.0 51 6.8 WSW 17 20 9 11 1015.9 1015.9 0.2
25/03:00pm 28.2 26.4 16.1 47 7.5 W 20 30 11 16 1016.1 1016.1 0.2
25/02:30pm 28.1 26.8 16.7 50 7.1 W 19 26 10 14 1015.9 1015.9 0.2
25/02:00pm 28.6 26.2 15.5 45 8.0 WNW 22 37 12 20 1016.2 1016.2 0.2
25/01:30pm 28.8 27.6 17.0 49 7.4 W 19 28 10 15 1016.6 1016.6 0.2
25/01:00pm 28.3 26.2 16.2 47 7.5 NW 22 30 12 16 1016.7 1016.7 0.2
25/12:30pm 27.5 25.5 16.5 51 6.8 NW 22 37 12 20 1017.2 1017.2 0.2
25/12:14pm 26.3 22.9 15.7 52 6.5 WNW 28 44 15 24 1017.4 1017.4 0.2
25/12:00pm 26.9 25.3 16.5 53 6.4 WNW 20 26 11 14 1017.5 1017.5 0.2
25/11:30am 25.6 22.7 16.2 56 5.8 WNW 26 35 14 19 1018.0 1018.0 0.2
25/11:00am 25.7 22.0 16.0 55 5.9 NW 30 41 16 22 1018.3 1018.3 0.2
25/10:30am 25.7 22.5 15.4 53 6.2 WNW 26 35 14 19 1018.5 1018.5 0.2
25/10:00am 25.0 24.2 17.0 61 4.9 NW 17 24 9 13 1019.0 1019.0 0.0
25/09:30am 22.6 23.9 17.5 73 3.2 N 7 13 4 7 1019.1 1019.1 0.0
25/09:06am 20.4 22.9 18.2 87 1.4 NE 2 6 1 3 1019.3 1019.3 0.0
25/09:00am 20.4 22.9 18.2 87 1.4 ENE 2 6 1 3 1019.3 1019.3 2.6
25/08:37am 19.0 21.5 18.2 95 0.5 SE 2 6 1 3 1019.2 1019.2 2.6
25/08:30am 18.8 21.0 18.3 97 0.3 ENE 4 7 2 4 1019.1 1019.1 2.6
25/08:00am 17.8 19.6 17.5 98 0.2 N 4 7 2 4 1018.7 1018.7 2.6
25/07:30am 17.2 18.1 16.7 97 0.3 WSW 7 11 4 6 1018.6 1018.6 2.6

Latest Capital City Observations: Canberra | Sydney | Melbourne | Brisbane | Adelaide | Perth | Hobart | Darwin

Other Formats:

Comma delimited format used in spreadsheet applications
http://www.bom.gov.au/fwo/IDQ60901/IDQ60901.94575.axf

JavaScript Object Notation format (JSON) in row-major order
http://www.bom.gov.au/fwo/IDQ60901/IDQ60901.94575.json